createdAt,value
2023-01-15T00:02:27.669Z,99136.88
2023-01-15T00:04:55.626Z,99138.28
2023-01-15T00:07:23.464Z,99144.44
2023-01-15T00:09:57.348Z,99136.28
2023-01-15T00:12:25.211Z,99143.59
2023-01-15T00:14:53.085Z,99135.06
2023-01-15T00:17:23.729Z,99132.13
2023-01-15T00:19:53.245Z,99135.41
2023-01-15T00:22:20.926Z,99126.03
2023-01-15T00:25:06.244Z,99119.06
2023-01-15T00:27:39.995Z,99114.75
2023-01-15T00:30:10.572Z,99121.28
2023-01-15T00:32:39.687Z,99116.59
2023-01-15T00:35:09.740Z,99119.25
2023-01-15T00:37:39.332Z,99114.97
2023-01-15T00:40:07.792Z,99117.63
2023-01-15T00:42:35.410Z,99104.25
2023-01-15T00:45:09.881Z,99114.13
2023-01-15T00:47:39.608Z,99101.41
2023-01-15T00:50:09.587Z,99114.13
2023-01-15T00:52:37.367Z,99110.41
2023-01-15T00:55:05.986Z,99118.38
2023-01-15T00:57:33.808Z,99126.09
2023-01-15T01:00:02.847Z,99120.63
2023-01-15T01:02:30.485Z,99120.63
2023-01-15T01:04:59.527Z,99112.88
2023-01-15T01:07:27.386Z,99125.09
2023-01-15T01:09:55.054Z,99123.06
2023-01-15T01:12:24.628Z,99128.41
2023-01-15T01:14:52.330Z,99122.22
2023-01-15T01:17:20.087Z,99123.91
2023-01-15T01:19:47.804Z,99117.34
2023-01-15T01:22:16.752Z,99141.06
2023-01-15T01:24:44.339Z,99160.50
2023-01-15T01:27:13.172Z,99155.38
2023-01-15T01:29:40.753Z,99155.31
2023-01-15T01:32:08.267Z,99150.09
2023-01-15T01:34:38.704Z,99143.88
2023-01-15T01:37:10.531Z,99145.16
2023-01-15T01:39:39.903Z,99144.56
2023-01-15T01:42:13.365Z,99141.34
2023-01-15T01:45:03.675Z,99143.19
2023-01-15T01:47:34.664Z,99140.25
2023-01-15T01:50:05.848Z,99149.31
2023-01-15T01:52:36.497Z,99151.72
2023-01-15T01:55:06.257Z,99153.63
2023-01-15T01:57:33.892Z,99161.41
2023-01-15T02:00:04.963Z,99166.91
2023-01-15T02:02:32.878Z,99164.00
2023-01-15T02:05:00.568Z,99176.06
2023-01-15T02:07:28.131Z,99185.94
2023-01-15T02:09:55.594Z,99185.47
2023-01-15T02:12:28.042Z,99183.03
2023-01-15T02:15:01.100Z,99188.75
2023-01-15T02:17:34.973Z,99192.81
2023-01-15T02:20:15.825Z,99178.69
2023-01-15T02:22:56.026Z,99189.16
2023-01-15T02:25:32.156Z,99204.03
2023-01-15T02:28:05.593Z,99213.66
2023-01-15T02:30:36.064Z,99229.41
2023-01-15T02:33:07.089Z,99231.44
2023-01-15T02:35:37.858Z,99221.25
2023-01-15T02:38:08.454Z,99224.13
2023-01-15T02:40:36.664Z,99221.25
2023-01-15T02:43:06.359Z,99219.44
2023-01-15T02:45:38.045Z,99210.84
2023-01-15T02:48:09.626Z,99218.16
2023-01-15T02:50:40.239Z,99221.47
2023-01-15T02:53:10.266Z,99226.78
2023-01-15T02:55:41.908Z,99230.44
2023-01-15T02:58:12.955Z,99226.31
2023-01-15T03:00:43.535Z,99237.75
2023-01-15T03:03:15.415Z,99238.94
2023-01-15T03:05:46.462Z,99249.75
2023-01-15T03:08:14.019Z,99255.28
2023-01-15T03:10:44.267Z,99241.81
2023-01-15T03:13:17.177Z,99246.91
2023-01-15T03:16:07.071Z,99258.94
2023-01-15T03:18:38.336Z,99262.22
2023-01-15T03:21:09.005Z,99251.53
2023-01-15T03:23:37.748Z,99260.44
2023-01-15T03:26:05.274Z,99268.19
2023-01-15T03:28:36.597Z,99270.56
2023-01-15T03:31:04.206Z,99271.00
2023-01-15T03:33:31.929Z,99270.72
2023-01-15T03:36:01.271Z,99281.63
2023-01-15T03:38:30.751Z,99271.38
2023-01-15T03:41:04.382Z,99291.81
2023-01-15T03:43:43.212Z,99293.03
2023-01-15T03:46:19.038Z,99304.59
2023-01-15T03:48:54.345Z,99308.28
2023-01-15T03:51:24.964Z,99293.69
2023-01-15T03:53:54.914Z,99308.53
2023-01-15T03:56:28.380Z,99313.75
2023-01-15T03:59:00.659Z,99328.09
2023-01-15T04:01:32.693Z,99308.56
2023-01-15T04:04:01.095Z,99313.47
2023-01-15T04:06:30.906Z,99314.00
2023-01-15T04:08:59.000Z,99325.22
2023-01-15T04:11:27.651Z,99333.94
2023-01-15T04:13:55.356Z,99329.72
2023-01-15T04:16:27.653Z,99325.13
2023-01-15T04:18:55.399Z,99321.94
2023-01-15T04:21:23.148Z,99320.41
2023-01-15T04:23:51.101Z,99331.38
2023-01-15T04:26:18.736Z,99339.66
2023-01-15T04:28:46.194Z,99346.03
2023-01-15T04:31:13.812Z,99358.69
2023-01-15T04:33:42.656Z,99345.03
2023-01-15T04:36:11.015Z,99350.63
2023-01-15T04:38:38.917Z,99350.19
2023-01-15T04:41:23.407Z,99361.09
2023-01-15T04:44:09.225Z,99357.34
2023-01-15T04:46:38.732Z,99355.91
2023-01-15T04:49:09.913Z,99357.25
2023-01-15T04:51:39.314Z,99355.63
2023-01-15T04:54:07.816Z,99360.69
2023-01-15T04:56:39.156Z,99380.00
2023-01-15T04:59:06.675Z,99384.19
2023-01-15T05:01:34.232Z,99383.72
2023-01-15T05:04:01.974Z,99382.47
2023-01-15T05:06:31.246Z,99382.31
2023-01-15T05:08:58.759Z,99380.19
2023-01-15T05:11:26.298Z,99365.81
2023-01-15T05:13:54.305Z,99360.06
2023-01-15T05:16:24.570Z,99364.91
2023-01-15T05:18:52.866Z,99375.75
2023-01-15T05:21:21.832Z,99373.22
2023-01-15T05:23:51.826Z,99373.13
2023-01-15T05:26:19.428Z,99382.03
2023-01-15T05:28:46.994Z,99392.31
2023-01-15T05:31:16.229Z,99392.03
2023-01-15T05:33:44.334Z,99393.88
2023-01-15T05:36:13.820Z,99414.16
2023-01-15T05:38:41.698Z,99415.00
2023-01-15T05:41:26.572Z,99428.19
2023-01-15T05:43:54.054Z,99428.19
2023-01-15T05:46:21.660Z,99419.75
2023-01-15T05:48:49.369Z,99420.34
2023-01-15T05:51:17.108Z,99431.94
2023-01-15T05:53:44.602Z,99429.28
2023-01-15T05:56:13.664Z,99434.56
2023-01-15T05:58:41.120Z,99431.81
2023-01-15T06:01:09.517Z,99437.66
2023-01-15T06:03:37.496Z,99439.38
2023-01-15T06:06:05.343Z,99436.53
2023-01-15T06:08:32.885Z,99443.09
2023-01-15T06:11:00.335Z,99449.91
2023-01-15T06:13:29.191Z,99451.31
2023-01-15T06:15:56.718Z,99432.75
2023-01-15T06:18:24.684Z,99438.09
2023-01-15T06:20:52.175Z,99424.72
2023-01-15T06:23:19.832Z,99434.72
2023-01-15T06:25:47.326Z,99424.91
2023-01-15T06:28:14.789Z,99425.47
2023-01-15T06:30:43.613Z,99430.69
2023-01-15T06:33:11.073Z,99429.47
2023-01-15T06:35:38.523Z,99437.81
2023-01-15T06:38:06.052Z,99447.09
2023-01-15T06:40:33.512Z,99451.06
2023-01-15T06:43:18.550Z,99443.09
2023-01-15T06:46:05.067Z,99457.94
2023-01-15T06:48:32.586Z,99449.00
2023-01-15T06:51:00.386Z,99467.25
2023-01-15T06:53:27.988Z,99485.06
2023-01-15T06:55:55.503Z,99462.69
2023-01-15T06:58:23.200Z,99467.47
2023-01-15T07:00:56.018Z,99464.09
2023-01-15T07:03:24.210Z,99473.97
2023-01-15T07:05:51.673Z,99478.91
2023-01-15T07:08:19.159Z,99474.34
2023-01-15T07:10:46.584Z,99473.41
2023-01-15T07:13:14.078Z,99470.53
2023-01-15T07:15:41.535Z,99485.38
2023-01-15T07:18:10.399Z,99488.00
2023-01-15T07:20:37.860Z,99477.44
2023-01-15T07:23:05.316Z,99489.00
2023-01-15T07:25:32.768Z,99492.00
2023-01-15T07:28:00.198Z,99504.66
2023-01-15T07:30:27.664Z,99501.38
2023-01-15T07:32:57.220Z,99505.09
2023-01-15T07:35:26.039Z,99511.97
2023-01-15T07:37:53.528Z,99523.53
2023-01-15T07:40:20.988Z,99523.53
2023-01-15T07:43:06.037Z,99524.59
2023-01-15T07:46:02.675Z,99519.06
2023-01-15T07:48:47.769Z,99522.56
2023-01-15T07:51:16.641Z,99534.66
2023-01-15T07:53:44.166Z,99528.38
2023-01-15T07:56:11.809Z,99532.75
2023-01-15T07:58:39.276Z,99532.91
2023-01-15T08:01:07.091Z,99533.25
2023-01-15T08:03:34.646Z,99543.50
2023-01-15T08:06:02.263Z,99557.81
2023-01-15T08:08:31.242Z,99550.84
2023-01-15T08:11:20.399Z,99551.53
2023-01-15T08:14:05.674Z,99547.84
2023-01-15T08:16:36.692Z,99551.88
2023-01-15T08:19:04.519Z,99553.00
2023-01-15T08:21:34.281Z,99546.25
2023-01-15T08:24:03.934Z,99553.13
2023-01-15T08:26:31.527Z,99559.06
2023-01-15T08:29:00.584Z,99566.66
2023-01-15T08:31:28.337Z,99563.44
2023-01-15T08:33:55.967Z,99564.41
2023-01-15T08:36:23.563Z,99567.22
2023-01-15T08:38:51.099Z,99565.72
2023-01-15T08:41:20.088Z,99569.13
2023-01-15T08:43:47.964Z,99578.25
2023-01-15T08:46:15.876Z,99580.88
2023-01-15T08:48:44.595Z,99585.81
2023-01-15T08:51:13.146Z,99590.09
2023-01-15T08:53:43.391Z,99598.34
2023-01-15T08:56:13.200Z,99600.28
2023-01-15T08:58:43.765Z,99612.91
2023-01-15T09:01:15.780Z,99600.66
2023-01-15T09:03:43.712Z,99597.16
2023-01-15T09:06:13.383Z,99604.31
2023-01-15T09:08:41.607Z,99617.81
2023-01-15T09:11:09.907Z,99621.97
2023-01-15T09:13:38.068Z,99611.03
2023-01-15T09:16:09.865Z,99613.22
2023-01-15T09:18:39.009Z,99627.66
2023-01-15T09:21:06.711Z,99625.09
2023-01-15T09:23:34.173Z,99628.47
2023-01-15T09:26:05.116Z,99626.94
2023-01-15T09:28:33.299Z,99637.72
2023-01-15T09:31:01.408Z,99639.97
2023-01-15T09:33:30.244Z,99634.13
2023-01-15T09:35:57.750Z,99645.63
2023-01-15T09:38:25.313Z,99651.00
2023-01-15T09:40:55.651Z,99657.66
2023-01-15T09:43:31.588Z,99661.72
2023-01-15T09:46:01.198Z,99670.59
2023-01-15T09:48:37.574Z,99673.16
2023-01-15T09:51:13.428Z,99674.25
2023-01-15T09:53:54.630Z,99679.31
2023-01-15T09:56:23.506Z,99679.34
2023-01-15T09:58:51.892Z,99675.41
2023-01-15T10:01:22.067Z,99667.53
2023-01-15T10:03:55.010Z,99661.56
2023-01-15T10:06:25.361Z,99662.44
2023-01-15T10:08:58.989Z,99659.63
2023-01-15T10:11:53.253Z,99661.31
2023-01-15T10:14:39.175Z,99673.91
2023-01-15T10:17:20.596Z,99661.53
2023-01-15T10:19:49.521Z,99684.63
2023-01-15T10:22:26.278Z,99682.06
2023-01-15T10:24:57.452Z,99669.16
2023-01-15T10:27:27.327Z,99669.06
2023-01-15T10:29:59.003Z,99667.88
2023-01-15T10:32:39.345Z,99654.69
2023-01-15T10:35:28.204Z,99663.38
2023-01-15T10:37:58.165Z,99665.56
2023-01-15T10:40:34.298Z,99668.88
2023-01-15T10:43:04.981Z,99672.47
2023-01-15T10:45:35.743Z,99671.78
2023-01-15T10:48:07.326Z,99667.53
2023-01-15T10:50:36.416Z,99667.69
2023-01-15T10:53:09.049Z,99652.97
2023-01-15T10:55:39.754Z,99644.78
2023-01-15T10:58:13.227Z,99650.00
2023-01-15T11:00:41.280Z,99655.78
2023-01-15T11:03:15.103Z,99666.91
2023-01-15T11:05:45.707Z,99675.34
2023-01-15T11:09:06.079Z,99682.16
2023-01-15T11:11:17.244Z,99688.44
2023-01-15T11:14:11.220Z,99691.59
2023-01-15T11:16:53.615Z,99689.91
2023-01-15T11:19:39.616Z,99686.91
2023-01-15T11:22:12.646Z,99689.91
2023-01-15T11:24:47.689Z,99701.28
2023-01-15T11:27:17.839Z,99703.69
2023-01-15T11:29:46.530Z,99720.19
2023-01-15T11:32:23.510Z,99711.94
2023-01-15T11:34:55.086Z,99713.91
2023-01-15T11:37:23.960Z,99710.88
2023-01-15T11:39:56.553Z,99719.41
2023-01-15T11:42:41.895Z,99724.38
2023-01-15T11:45:32.059Z,99731.16
2023-01-15T11:48:17.540Z,99721.03
2023-01-15T11:50:52.422Z,99725.34
2023-01-15T11:56:10.871Z,99716.16
2023-01-15T11:58:42.052Z,99722.03
2023-01-15T12:01:09.602Z,99717.41
2023-01-15T12:03:37.715Z,99710.72
2023-01-15T12:06:06.942Z,99692.66
2023-01-15T12:08:47.144Z,99676.63
2023-01-15T12:11:27.533Z,99680.81
2023-01-15T12:14:05.100Z,99676.28
2023-01-15T12:16:36.967Z,99678.75
2023-01-15T12:19:11.145Z,99664.59
2023-01-15T12:21:59.164Z,99670.81
2023-01-15T12:25:00.289Z,99665.22
2023-01-15T12:28:03.175Z,99656.69
2023-01-15T12:30:39.083Z,99657.72
2023-01-15T12:33:17.646Z,99666.44
2023-01-15T12:35:50.350Z,99649.88
2023-01-15T12:38:23.651Z,99647.59
2023-01-15T12:40:53.275Z,99642.31
2023-01-15T12:43:42.175Z,99639.69
2023-01-15T12:46:15.233Z,99658.59
2023-01-15T12:48:47.580Z,99657.13
2023-01-15T12:51:30.593Z,99649.19
2023-01-15T12:54:01.617Z,99639.53
2023-01-15T12:56:32.289Z,99648.59
2023-01-15T12:59:05.599Z,99643.50
2023-01-15T13:01:39.866Z,99644.34
2023-01-15T13:04:13.636Z,99651.38
2023-01-15T13:06:44.394Z,99652.09
2023-01-15T13:09:19.823Z,99659.22
2023-01-15T13:11:47.289Z,99659.84
2023-01-15T13:14:16.469Z,99671.78
2023-01-15T13:16:49.132Z,99669.16
2023-01-15T13:19:24.518Z,99659.84
2023-01-15T13:21:53.107Z,99667.06
2023-01-15T13:24:58.194Z,99671.44
2023-01-15T13:27:34.065Z,99656.38
2023-01-15T13:30:13.184Z,99667.38
2023-01-15T13:32:44.406Z,99672.38
2023-01-15T13:35:15.286Z,99675.84
2023-01-15T13:37:46.353Z,99683.50
2023-01-15T13:40:19.269Z,99690.69
2023-01-15T13:42:49.477Z,99682.09
2023-01-15T13:45:38.301Z,99682.88
2023-01-15T13:48:12.683Z,99691.16
2023-01-15T13:50:43.348Z,99695.06
2023-01-15T13:53:20.683Z,99693.00
2023-01-15T13:55:52.566Z,99685.34
2023-01-15T13:58:26.905Z,99684.69
2023-01-15T14:01:09.797Z,99685.72
2023-01-15T14:03:39.331Z,99689.19
2023-01-15T14:06:08.556Z,99683.59
2023-01-15T14:08:41.190Z,99678.03
2023-01-15T14:11:31.760Z,99686.16
2023-01-15T14:14:36.216Z,99679.88
2023-01-15T14:17:23.606Z,99682.88
2023-01-15T14:20:05.320Z,99693.81
2023-01-15T14:22:52.200Z,99686.78
2023-01-15T14:25:32.595Z,99707.59
2023-01-15T14:28:13.734Z,99702.31
2023-01-15T14:31:08.928Z,99716.19
2023-01-15T14:33:47.081Z,99718.53
2023-01-15T14:36:19.462Z,99732.06
2023-01-15T14:38:49.411Z,99739.34
2023-01-15T14:41:17.146Z,99725.75
2023-01-15T14:43:49.894Z,99730.78
2023-01-15T14:46:25.675Z,99744.22
2023-01-15T14:48:53.444Z,99731.41
2023-01-15T14:51:26.284Z,99742.75
2023-01-15T14:53:56.981Z,99736.81
2023-01-15T14:56:28.128Z,99739.47
2023-01-15T14:58:58.344Z,99735.53
2023-01-15T15:01:32.288Z,99748.50
2023-01-15T15:04:04.321Z,99750.22
2023-01-15T15:06:33.852Z,99758.41
2023-01-15T15:09:05.463Z,99745.00
2023-01-15T15:11:55.202Z,99751.69
2023-01-15T15:14:23.139Z,99755.88
2023-01-15T15:16:53.716Z,99775.00
2023-01-15T15:19:28.122Z,99760.50
2023-01-15T15:22:00.375Z,99763.09
2023-01-15T15:24:30.367Z,99770.00
2023-01-15T15:26:57.926Z,99773.75
2023-01-15T15:29:25.398Z,99792.25
2023-01-15T15:31:56.709Z,99788.16
2023-01-15T15:34:29.016Z,99771.81
2023-01-15T15:37:01.268Z,99776.75
2023-01-15T15:39:35.728Z,99779.13
2023-01-15T15:42:21.316Z,99790.97
2023-01-15T15:45:09.255Z,99779.47
2023-01-15T15:47:56.468Z,99786.41
2023-01-15T15:50:25.367Z,99787.06
2023-01-15T15:52:54.495Z,99789.88
2023-01-15T15:55:22.761Z,99768.22
2023-01-15T15:57:52.898Z,99782.84
2023-01-15T16:00:23.573Z,99782.38
2023-01-15T16:02:51.069Z,99786.19
2023-01-15T16:05:23.866Z,99798.72
2023-01-15T16:07:51.916Z,99799.69
2023-01-15T16:10:25.329Z,99790.38
2023-01-15T16:12:54.235Z,99792.91
2023-01-15T16:15:24.349Z,99798.41
2023-01-15T16:17:52.116Z,99796.03
2023-01-15T16:20:20.508Z,99787.09
2023-01-15T16:22:50.127Z,99779.91
2023-01-15T16:25:27.370Z,99794.09
2023-01-15T16:27:54.972Z,99798.66
2023-01-15T16:30:22.932Z,99812.47
2023-01-15T16:32:51.566Z,99796.59
2023-01-15T16:35:22.447Z,99785.28
2023-01-15T16:37:51.333Z,99798.84
2023-01-15T16:40:26.781Z,99809.63
2023-01-15T16:43:03.809Z,99805.94
2023-01-15T16:45:31.635Z,99811.81
2023-01-15T16:48:10.920Z,99793.25
2023-01-15T16:50:39.152Z,99806.28
2023-01-15T16:53:07.954Z,99803.22
2023-01-15T16:55:39.325Z,99797.66
2023-01-15T16:58:33.183Z,99796.69
2023-01-15T17:01:02.351Z,99797.03
2023-01-15T17:03:31.251Z,99794.88
2023-01-15T17:06:02.277Z,99802.56
2023-01-15T17:08:34.016Z,99807.56
2023-01-15T17:11:04.629Z,99804.28
2023-01-15T17:13:36.528Z,99809.56
2023-01-15T17:16:07.833Z,99806.63
2023-01-15T17:18:36.279Z,99811.22
2023-01-15T17:21:04.043Z,99809.13
2023-01-15T17:23:36.104Z,99816.09
2023-01-15T17:26:06.482Z,99810.81
2023-01-15T17:28:35.224Z,99814.75
2023-01-15T17:31:03.632Z,99804.56
2023-01-15T17:33:31.232Z,99804.19
2023-01-15T17:36:01.129Z,99806.56
2023-01-15T17:38:28.847Z,99820.94
2023-01-15T17:40:59.871Z,99805.94
2023-01-15T17:43:28.917Z,99821.13
2023-01-15T17:45:56.477Z,99816.34
2023-01-15T17:48:24.015Z,99813.19
2023-01-15T17:50:51.856Z,99816.78
2023-01-15T17:53:19.438Z,99819.81
2023-01-15T17:56:04.614Z,99808.94
2023-01-15T17:58:51.217Z,99813.88
2023-01-15T18:01:38.257Z,99811.28
2023-01-15T18:04:23.754Z,99814.53
2023-01-15T18:06:54.446Z,99808.31
2023-01-15T18:09:22.637Z,99806.00
2023-01-15T18:11:50.189Z,99786.56
2023-01-15T18:14:19.089Z,99790.03
2023-01-15T18:16:46.765Z,99788.00
2023-01-15T18:19:14.371Z,99786.56
2023-01-15T18:21:42.094Z,99780.75
2023-01-15T18:24:11.704Z,99778.28
2023-01-15T18:26:39.782Z,99780.41
2023-01-15T18:29:08.461Z,99780.56
2023-01-15T18:31:38.716Z,99769.31
2023-01-15T18:34:06.384Z,99759.78
2023-01-15T18:36:34.205Z,99763.44
2023-01-15T18:39:06.122Z,99766.97
2023-01-15T18:41:52.412Z,99764.03
2023-01-15T18:44:53.535Z,99764.38
2023-01-15T18:47:23.825Z,99756.75
2023-01-15T18:49:53.859Z,99762.25
2023-01-15T18:52:39.438Z,99755.81
2023-01-15T18:55:07.648Z,99753.75
2023-01-15T18:57:35.190Z,99748.13
2023-01-15T19:00:03.068Z,99750.59
2023-01-15T19:02:32.038Z,99749.00
2023-01-15T19:05:00.645Z,99753.47
2023-01-15T19:07:28.318Z,99744.03
2023-01-15T19:09:55.840Z,99734.31
2023-01-15T19:12:23.361Z,99730.00
2023-01-15T19:15:08.832Z,99730.34
2023-01-15T19:17:55.411Z,99731.31
2023-01-15T19:20:23.028Z,99727.50
2023-01-15T19:22:59.825Z,99718.00
2023-01-15T19:25:28.774Z,99724.84
2023-01-15T19:27:57.917Z,99714.78
2023-01-15T19:30:26.443Z,99716.00
2023-01-15T19:32:55.365Z,99710.59
2023-01-15T19:35:23.351Z,99710.53
2023-01-15T19:37:51.005Z,99711.72
2023-01-15T19:40:21.154Z,99709.38
2023-01-15T19:43:06.123Z,99702.91
2023-01-15T19:45:51.869Z,99700.50
2023-01-15T19:48:39.119Z,99697.50
2023-01-15T19:51:07.668Z,99700.28
2023-01-15T19:53:35.677Z,99683.50
2023-01-15T19:56:04.173Z,99690.41
2023-01-15T19:58:33.814Z,99690.91
2023-01-15T20:01:01.849Z,99678.31
2023-01-15T20:03:31.211Z,99673.72
2023-01-15T20:05:58.879Z,99680.69
2023-01-15T20:08:26.573Z,99670.25
2023-01-15T20:10:54.141Z,99661.19
2023-01-15T20:13:41.605Z,99657.09
2023-01-15T20:16:11.266Z,99649.38
2023-01-15T20:18:40.695Z,99647.97
2023-01-15T20:21:08.398Z,99649.38
2023-01-15T20:23:37.285Z,99648.94
2023-01-15T20:26:06.929Z,99639.19
2023-01-15T20:28:35.863Z,99633.28
2023-01-15T20:31:03.591Z,99647.41
2023-01-15T20:33:31.336Z,99637.53
2023-01-15T20:36:04.401Z,99636.34
2023-01-15T20:38:32.133Z,99641.09
2023-01-15T20:41:20.347Z,99635.72
2023-01-15T20:44:05.552Z,99621.59
2023-01-15T20:46:33.253Z,99625.63
2023-01-15T20:49:18.669Z,99622.16
2023-01-15T20:51:47.864Z,99615.34
2023-01-15T20:54:15.575Z,99603.03
2023-01-15T20:56:43.150Z,99598.56
2023-01-15T20:59:10.734Z,99597.69
2023-01-15T21:01:40.435Z,99588.38
2023-01-15T21:04:09.719Z,99594.59
2023-01-15T21:06:37.327Z,99582.16
2023-01-15T21:09:06.644Z,99580.16
2023-01-15T21:11:34.191Z,99585.34
2023-01-15T21:14:01.870Z,99589.31
2023-01-15T21:16:29.457Z,99579.72
2023-01-15T21:18:59.020Z,99580.22
2023-01-15T21:21:26.569Z,99576.97
2023-01-15T21:23:54.120Z,99580.16
2023-01-15T21:26:24.291Z,99574.88
2023-01-15T21:28:53.951Z,99562.19
2023-01-15T21:31:22.141Z,99562.53
2023-01-15T21:33:49.764Z,99545.69
2023-01-15T21:36:17.305Z,99550.00
2023-01-15T21:38:44.804Z,99545.16
2023-01-15T21:41:14.156Z,99531.72
2023-01-15T21:44:01.598Z,99535.38
2023-01-15T21:46:29.682Z,99527.75
2023-01-15T21:48:58.383Z,99520.94
2023-01-15T21:51:26.607Z,99518.25
2023-01-15T21:53:54.578Z,99524.56
2023-01-15T21:56:22.169Z,99521.75
2023-01-15T21:58:51.039Z,99520.31
2023-01-15T22:01:18.856Z,99518.81
2023-01-15T22:03:46.795Z,99523.81
2023-01-15T22:06:14.437Z,99514.41
2023-01-15T22:08:41.984Z,99514.25
2023-01-15T22:11:11.168Z,99503.47
2023-01-15T22:13:40.615Z,99500.09
2023-01-15T22:16:09.790Z,99499.13
2023-01-15T22:18:37.390Z,99503.34
2023-01-15T22:21:06.271Z,99494.22
2023-01-15T22:23:34.356Z,99484.00
2023-01-15T22:26:02.085Z,99483.44
2023-01-15T22:28:29.684Z,99477.84
2023-01-15T22:30:57.316Z,99478.97
2023-01-15T22:33:26.424Z,99463.25
2023-01-15T22:35:58.518Z,99461.97
2023-01-15T22:38:26.171Z,99450.50
2023-01-15T22:40:53.744Z,99448.84
2023-01-15T22:43:22.602Z,99445.94
2023-01-15T22:45:50.269Z,99443.69
2023-01-15T22:48:17.836Z,99441.44
2023-01-15T22:50:46.824Z,99444.44
2023-01-15T22:53:14.468Z,99437.00
2023-01-15T22:55:42.187Z,99433.28
2023-01-15T22:58:09.963Z,99426.47
2023-01-15T23:00:37.537Z,99419.66
2023-01-15T23:03:07.935Z,99413.34
2023-01-15T23:05:38.802Z,99404.03
2023-01-15T23:08:08.573Z,99408.84
2023-01-15T23:10:36.114Z,99403.09
2023-01-15T23:13:03.682Z,99401.47
2023-01-15T23:15:31.242Z,99387.03
2023-01-15T23:17:58.814Z,99389.28
2023-01-15T23:20:26.402Z,99391.13
2023-01-15T23:22:54.032Z,99375.53
2023-01-15T23:25:23.137Z,99380.41
2023-01-15T23:27:50.813Z,99374.81
2023-01-15T23:30:18.674Z,99369.72
2023-01-15T23:32:48.157Z,99357.91
2023-01-15T23:35:15.810Z,99371.09
2023-01-15T23:37:43.432Z,99359.28
2023-01-15T23:40:12.270Z,99345.78
2023-01-15T23:42:58.752Z,99353.28
2023-01-15T23:45:44.117Z,99355.06
2023-01-15T23:48:12.825Z,99367.44
2023-01-15T23:50:40.416Z,99351.06
2023-01-15T23:53:08.091Z,99347.03
2023-01-15T23:55:35.565Z,99337.44
2023-01-15T23:58:04.541Z,99335.81
